Time;durP1;ratioP1;P1;durP2;ratioP2;P2;SDS_P1;SDS_P2;PMS_P1;PMS_P2;Temp;Humidity;BMP_temperature;BMP_pressure;BME280_temperature;BME280_humidity;BME280_pressure;Samples;Min_cycle;Max_cycle;Signal;HPM_P1;HPM_P2
2022/05/10 00:01:21;;;;;;;5.65;3.88;;;11.60;99.90;;;;;;5100087;28;20742;-66
2022/05/10 00:03:47;;;;;;;7.15;4.00;;;11.60;99.90;;;;;;5101452;28;20883;-66
2022/05/10 00:06:12;;;;;;;;;;;11.60;99.90;;;;;;5102020;28;20799;-66
2022/05/10 00:08:39;;;;;;;6.13;3.88;;;11.50;99.90;;;;;;5102203;28;19916;-67
2022/05/10 00:11:05;;;;;;;5.45;4.20;;;11.50;99.90;;;;;;5100389;28;20042;-67
2022/05/10 00:13:31;;;;;;;;;;;11.50;99.90;;;;;;5102007;28;20223;-66
2022/05/10 00:15:56;;;;;;;6.95;4.13;;;11.50;99.90;;;;;;5101168;28;19958;-66
2022/05/10 00:18:24;;;;;;;;;;;11.50;99.90;;;;;;5090609;28;20044;-66
2022/05/10 00:20:50;;;;;;;7.80;3.55;;;11.50;99.90;;;;;;5087166;28;19923;-66
2022/05/10 00:23:16;;;;;;;;;;;11.50;99.90;;;;;;5087990;28;20467;-66
2022/05/10 00:25:42;;;;;;;5.15;3.67;;;11.60;99.90;;;;;;5087475;28;20643;-66
2022/05/10 00:28:07;;;;;;;;;;;11.50;99.90;;;;;;5084464;28;20132;-66
2022/05/10 00:30:33;;;;;;;8.00;4.50;;;11.50;99.90;;;;;;5084606;28;19916;-66
2022/05/10 00:32:59;;;;;;;;;;;11.50;99.90;;;;;;5087552;28;20036;-66
2022/05/10 00:35:28;;;;;;;7.95;4.28;;;11.50;99.90;;;;;;5079961;28;19920;-66
2022/05/10 00:37:57;;;;;;;4.75;3.95;;;11.50;99.90;;;;;;5079214;28;20032;-66
2022/05/10 00:40:31;;;;;;;6.85;4.38;;;11.50;99.90;;;;;;5087250;28;20044;-67
2022/05/10 00:43:24;;;;;;;5.70;3.83;;;11.40;99.90;;;;;;5083222;28;20040;-67
2022/05/10 00:46:04;;;;;;;6.55;4.13;;;11.30;99.90;;;;;;5086725;28;20865;-67
2022/05/10 00:48:49;;;;;;;6.78;4.15;;;11.30;99.90;;;;;;5086895;28;20067;-67
2022/05/10 00:51:24;;;;;;;6.32;4.00;;;11.30;99.90;;;;;;5085045;28;20035;-67
2022/05/10 00:54:02;;;;;;;5.25;4.20;;;11.30;99.90;;;;;;5087103;28;20066;-66
2022/05/10 00:56:40;;;;;;;10.35;3.58;;;11.30;99.90;;;;;;5070261;28;20040;-69
2022/05/10 00:59:19;;;;;;;4.68;3.75;;;11.40;99.90;;;;;;5078589;28;20526;-68
2022/05/10 01:01:51;;;;;;;6.88;3.95;;;11.40;99.90;;;;;;5085252;28;20067;-68
2022/05/10 01:04:37;;;;;;;5.93;3.72;;;11.30;99.90;;;;;;5084855;28;20040;-67
2022/05/10 01:07:20;;;;;;;5.25;3.97;;;11.30;99.90;;;;;;5086465;28;20044;-68
2022/05/10 01:09:57;;;;;;;7.80;3.80;;;11.30;99.90;;;;;;5087178;28;20059;-66
2022/05/10 01:12:34;;;;;;;4.85;3.65;;;11.30;99.90;;;;;;5085593;28;20123;-67
2022/05/10 01:15:08;;;;;;;5.68;4.07;;;11.30;99.90;;;;;;5086432;28;20719;-68
2022/05/10 01:17:35;;;;;;;6.15;3.90;;;11.30;99.90;;;;;;5085643;28;20044;-68
2022/05/10 01:20:01;;;;;;;9.35;4.10;;;11.30;99.90;;;;;;5086687;28;20560;-66
2022/05/10 01:22:47;;;;;;;5.47;3.67;;;11.30;99.90;;;;;;5085753;28;20733;-67
2022/05/10 01:25:44;;;;;;;5.22;3.75;;;11.30;99.90;;;;;;5083263;28;20512;-67
2022/05/10 01:28:26;;;;;;;7.38;3.58;;;11.30;99.90;;;;;;5074754;28;20075;-67
2022/05/10 01:30:54;;;;;;;7.43;3.90;;;11.30;99.90;;;;;;5083514;28;20512;-66
2022/05/10 01:33:31;;;;;;;5.85;3.78;;;11.20;99.90;;;;;;5085902;28;20439;-66
2022/05/10 01:36:12;;;;;;;8.75;4.03;;;11.20;99.90;;;;;;5086989;28;20131;-64
2022/05/10 01:38:42;;;;;;;6.57;3.90;;;11.20;99.90;;;;;;5085984;28;20625;-66
2022/05/10 01:41:53;;;;;;;5.57;3.95;;;11.20;99.90;;;;;;5082410;28;20042;-66
2022/05/10 01:44:26;;;;;;;4.95;3.45;;;11.20;99.90;;;;;;5086071;28;20605;-67
2022/05/10 01:46:59;;;;;;;9.55;4.35;;;11.20;99.90;;;;;;5085301;28;20129;-67
2022/05/10 01:49:45;;;;;;;6.10;3.97;;;11.20;99.90;;;;;;5084914;28;20044;-66
2022/05/10 01:52:24;;;;;;;7.50;3.80;;;11.20;99.90;;;;;;5079527;28;20073;-67
2022/05/10 01:55:04;;;;;;;8.52;3.92;;;11.20;99.90;;;;;;5085665;28;20039;-68
2022/05/10 01:57:33;;;;;;;6.13;3.60;;;11.20;99.90;;;;;;5082850;28;20131;-68
2022/05/10 02:00:13;;;;;;;19.30;4.35;;;11.10;99.90;;;;;;5084208;28;20674;-66
2022/05/10 02:02:46;;;;;;;8.48;3.42;;;11.10;99.90;;;;;;5084134;28;20051;-66
2022/05/10 02:05:19;;;;;;;4.82;3.92;;;11.10;99.90;;;;;;5086033;28;20107;-66
2022/05/10 02:07:47;;;;;;;5.82;3.45;;;11.10;99.90;;;;;;5085530;28;20048;-67
2022/05/10 02:10:31;;;;;;;7.60;4.65;;;11.10;99.90;;;;;;5085910;28;20134;-67
2022/05/10 02:13:19;;;;;;;5.38;3.50;;;11.10;99.90;;;;;;5085634;28;20059;-67
2022/05/10 02:16:15;;;;;;;5.95;3.58;;;11.10;99.90;;;;;;5085123;28;20099;-67
2022/05/10 02:18:59;;;;;;;6.32;3.45;;;11.10;99.90;;;;;;5084957;28;20067;-66
2022/05/10 02:21:30;;;;;;;4.95;3.67;;;11.20;99.90;;;;;;5084314;28;20056;-67
2022/05/10 02:24:22;;;;;;;6.95;3.78;;;11.20;99.90;;;;;;5085426;28;20032;-66
2022/05/10 02:27:02;;;;;;;8.43;4.35;;;11.20;99.90;;;;;;5077561;28;20668;-66
2022/05/10 02:29:43;;;;;;;7.80;3.42;;;11.20;99.90;;;;;;5084181;28;20036;-66
2022/05/10 02:35:02;;;;;;;4.15;3.65;;;11.30;99.90;;;;;;5085409;28;20111;-67
2022/05/10 02:37:28;;;;;;;5.10;3.40;;;11.30;99.90;;;;;;5064921;28;20047;-66
2022/05/10 02:39:53;;;;;;;;;;;11.30;99.90;;;;;;5075702;28;20044;-68
2022/05/10 02:42:21;;;;;;;10.38;3.42;;;11.30;99.90;;;;;;5084837;28;19960;-66
2022/05/10 02:44:48;;;;;;;4.40;3.47;;;11.20;99.90;;;;;;5083974;28;20035;-67
2022/05/10 02:47:13;;;;;;;6.88;3.75;;;11.30;99.90;;;;;;5085328;28;20419;-68
2022/05/10 02:49:40;;;;;;;;;;;11.30;99.90;;;;;;5085613;28;20036;-67
2022/05/10 02:52:06;;;;;;;6.57;3.67;;;11.30;99.90;;;;;;5084281;28;19916;-68
2022/05/10 02:54:31;;;;;;;;;;;11.30;99.90;;;;;;5081731;28;20039;-66
2022/05/10 02:56:59;;;;;;;6.13;3.40;;;11.30;99.90;;;;;;5079162;28;19920;-66
2022/05/10 02:59:29;;;;;;;5.43;3.40;;;11.30;99.90;;;;;;5084359;28;20066;-66
2022/05/10 03:02:05;;;;;;;7.53;3.78;;;11.30;99.90;;;;;;5083549;28;20051;-67
2022/05/10 03:04:42;;;;;;;5.18;3.72;;;11.30;99.90;;;;;;5084772;28;20403;-67
2022/05/10 03:07:09;;;;;;;6.30;3.70;;;11.40;99.90;;;;;;5084853;28;20044;-68
2022/05/10 03:09:35;;;;;;;5.43;3.80;;;11.40;99.90;;;;;;5084917;28;20055;-67
2022/05/10 03:12:05;;;;;;;6.63;3.90;;;11.40;99.90;;;;;;5084352;28;20040;-67
2022/05/10 03:14:32;;;;;;;9.63;3.70;;;11.40;99.90;;;;;;5084022;28;20612;-67
2022/05/10 03:16:57;;;;;;;6.57;4.57;;;11.50;99.90;;;;;;5084525;28;20075;-66
2022/05/10 03:19:23;;;;;;;;;;;11.50;99.90;;;;;;5077369;28;20083;-67
2022/05/10 03:21:48;;;;;;;5.47;4.20;;;11.60;99.90;;;;;;5084074;28;19916;-66
2022/05/10 03:24:14;;;;;;;;;;;11.60;99.90;;;;;;5085935;28;20305;-66
2022/05/10 03:26:48;;;;;;;5.85;3.97;;;11.60;99.90;;;;;;5080714;28;20514;-66
2022/05/10 03:29:15;;;;;;;4.80;3.90;;;11.60;99.90;;;;;;5081799;28;20040;-66
2022/05/10 03:31:41;;;;;;;5.55;4.22;;;11.70;99.90;;;;;;5070181;28;20037;-66
2022/05/10 03:36:51;;;;;;;7.43;4.30;;;11.80;99.90;;;;;;5070429;28;20056;-66
2022/05/10 03:39:16;;;;;;;;;;;11.80;99.90;;;;;;5068853;28;20047;-66
2022/05/10 03:41:42;;;;;;;7.25;4.45;;;11.80;99.90;;;;;;5065549;28;19920;-67
2022/05/10 03:44:08;;;;;;;;;;;11.80;99.90;;;;;;5067899;28;20063;-67
2022/05/10 03:46:34;;;;;;;4.93;3.85;;;11.80;99.90;;;;;;5066922;28;19935;-66
2022/05/10 03:48:59;;;;;;;;;;;11.80;99.90;;;;;;5067521;28;20110;-66
2022/05/10 03:51:26;;;;;;;6.43;4.00;;;11.90;99.90;;;;;;5064990;28;19924;-66
2022/05/10 03:53:51;;;;;;;8.07;4.22;;;11.90;99.90;;;;;;5070823;28;20035;-66
2022/05/10 03:56:17;;;;;;;;;;;11.90;99.90;;;;;;5078099;28;20505;-66
2022/05/10 03:58:42;;;;;;;6.60;4.20;;;11.90;99.90;;;;;;5080004;28;19923;-66
2022/05/10 04:01:08;;;;;;;;;;;12.00;99.90;;;;;;5076726;28;20037;-66
2022/05/10 04:03:35;;;;;;;6.72;3.95;;;12.00;99.90;;;;;;5086786;28;19927;-66
2022/05/10 04:06:01;;;;;;;6.63;4.60;;;12.00;99.90;;;;;;5087281;28;20531;-66
2022/05/10 04:08:27;;;;;;;;;;;12.10;99.90;;;;;;5088669;28;20064;-66
2022/05/10 04:10:53;;;;;;;5.83;3.77;;;12.10;99.90;;;;;;5085728;28;20379;-67
2022/05/10 04:13:19;;;;;;;8.48;4.53;;;12.20;99.90;;;;;;5083552;28;20036;-67
2022/05/10 04:15:45;;;;;;;;;;;12.30;99.90;;;;;;5086845;28;20051;-66
2022/05/10 04:18:10;;;;;;;5.32;3.83;;;12.40;99.90;;;;;;5087811;28;19920;-67
2022/05/10 04:20:36;;;;;;;;;;;12.40;99.90;;;;;;5087234;28;20047;-65
2022/05/10 04:23:02;;;;;;;9.65;3.42;;;12.50;99.90;;;;;;5083913;28;20523;-67
2022/05/10 04:25:27;;;;;;;;;;;12.50;99.90;;;;;;5087172;28;20403;-69
2022/05/10 04:27:54;;;;;;;13.63;4.65;;;12.50;99.90;;;;;;5081321;28;19916;-68
2022/05/10 04:30:21;;;;;;;7.60;4.32;;;12.60;99.90;;;;;;5086204;28;20032;-64
2022/05/10 04:32:47;;;;;;;4.45;3.20;;;12.60;99.90;;;;;;5085997;28;20131;-67
2022/05/10 04:35:13;;;;;;;7.70;4.45;;;12.70;99.90;;;;;;5087436;28;20054;-67
2022/05/10 04:37:38;;;;;;;;;;;12.70;99.90;;;;;;5088598;28;20462;-67
2022/05/10 04:42:52;;;;;;;8.90;5.00;;;12.80;99.90;;;;;;5085810;28;20040;-67
2022/05/10 04:45:18;;;;;;;9.77;4.03;;;12.90;99.90;;;;;;5082423;28;20040;-67
2022/05/10 04:47:44;;;;;;;8.20;3.90;;;13.00;99.90;;;;;;5087375;28;20063;-66
2022/05/10 04:50:10;;;;;;;;;;;13.10;99.90;;;;;;5088125;28;20086;-67
2022/05/10 04:52:36;;;;;;;8.88;3.65;;;13.10;99.90;;;;;;5087162;28;19927;-67
2022/05/10 04:55:03;;;;;;;9.98;3.95;;;13.20;99.90;;;;;;5079807;28;20539;-67
2022/05/10 04:57:29;;;;;;;6.75;3.97;;;13.30;99.90;;;;;;5074094;28;20124;-67
2022/05/10 04:59:55;;;;;;;9.25;4.78;;;13.40;99.90;;;;;;5086646;28;20092;-67
2022/05/10 05:02:20;;;;;;;;;;;13.60;99.90;;;;;;5084997;28;20040;-67
2022/05/10 05:04:45;;;;;;;12.23;5.40;;;13.80;99.90;;;;;;5083985;28;19916;-68
2022/05/10 05:07:11;;;;;;;;;;;13.90;99.90;;;;;;5085787;28;20093;-68
2022/05/10 05:09:36;;;;;;;11.63;4.32;;;14.10;99.90;;;;;;5086896;28;19968;-68
2022/05/10 05:12:04;;;;;;;;;;;14.20;99.90;;;;;;5084511;28;20853;-68
2022/05/10 05:14:31;;;;;;;7.50;4.05;;;14.40;99.90;;;;;;5081268;28;19916;-68
2022/05/10 05:16:58;;;;;;;8.77;4.00;;;14.60;99.90;;;;;;5086741;28;20506;-69
2022/05/10 05:19:23;;;;;;;8.70;4.20;;;14.70;99.90;;;;;;5087485;28;20119;-68
2022/05/10 05:21:49;;;;;;;;;;;14.80;99.90;;;;;;5082795;28;20131;-68
2022/05/10 05:24:14;;;;;;;6.82;4.18;;;15.00;99.90;;;;;;5090085;28;19920;-70
2022/05/10 05:26:40;;;;;;;;;;;15.30;99.90;;;;;;5090015;28;20130;-68
2022/05/10 05:29:05;;;;;;;8.65;3.90;;;15.70;99.90;;;;;;5083056;28;19991;-67
2022/05/10 05:31:31;;;;;;;;;;;16.20;99.90;;;;;;5074430;28;20666;-64
2022/05/10 05:33:57;;;;;;;11.52;4.40;;;16.30;99.90;;;;;;5082459;28;19955;-66
2022/05/10 05:36:23;;;;;;;;;;;16.50;99.90;;;;;;5086504;28;20090;-66
2022/05/10 05:38:50;;;;;;;10.15;3.67;;;16.70;99.90;;;;;;5086474;28;19916;-65
2022/05/10 05:41:17;;;;;;;6.75;3.67;;;16.80;99.90;;;;;;5084387;28;20585;-67
2022/05/10 05:43:43;;;;;;;6.07;3.88;;;16.80;99.90;;;;;;5082319;28;20473;-67
2022/05/10 05:46:08;;;;;;;;;;;16.90;99.90;;;;;;5086902;28;20605;-66
2022/05/10 05:48:34;;;;;;;9.75;3.78;;;17.10;99.90;;;;;;5083920;28;19916;-68
2022/05/10 05:50:59;;;;;;;;;;;17.10;99.90;;;;;;5083770;28;20040;-67
2022/05/10 05:53:26;;;;;;;5.38;3.78;;;17.00;99.90;;;;;;5076657;28;20547;-67
2022/05/10 05:55:53;;;;;;;9.23;3.60;;;16.90;99.90;;;;;;5075014;28;20557;-67
2022/05/10 05:58:19;;;;;;;8.90;4.85;;;16.80;99.90;;;;;;5080553;28;20039;-66
2022/05/10 06:00:45;;;;;;;;;;;16.70;99.90;;;;;;5072598;28;20068;-66
2022/05/10 06:03:10;;;;;;;7.80;3.40;;;16.80;99.90;;;;;;5079999;28;19924;-66
2022/05/10 06:05:36;;;;;;;;;;;16.90;99.90;;;;;;5077683;28;20047;-67
2022/05/10 06:08:03;;;;;;;6.72;4.43;;;17.00;99.90;;;;;;5076413;28;20006;-66
2022/05/10 06:10:29;;;;;;;9.07;3.75;;;17.10;99.90;;;;;;5083071;28;20551;-65
2022/05/10 06:12:58;;;;;;;;;;;17.20;99.90;;;;;;5086398;28;20112;-66
2022/05/10 06:15:23;;;;;;;7.85;4.07;;;17.20;99.90;;;;;;5083044;28;19919;-65
2022/05/10 06:17:49;;;;;;;;;;;17.20;99.90;;;;;;5085960;28;20396;-65
2022/05/10 06:20:17;;;;;;;10.95;4.40;;;17.30;99.80;;;;;;5080559;28;19916;-66
2022/05/10 06:22:44;;;;;;;8.57;3.80;;;17.40;99.00;;;;;;5083156;28;20104;-67
2022/05/10 06:25:13;;;;;;;5.45;3.63;;;17.60;98.90;;;;;;5085776;28;20044;-66
2022/05/10 06:27:39;;;;;;;6.57;4.30;;;17.80;99.90;;;;;;5083343;28;20135;-67
2022/05/10 06:30:05;;;;;;;;;;;18.00;98.30;;;;;;5085474;28;20067;-67
2022/05/10 06:32:31;;;;;;;4.43;3.70;;;18.20;97.10;;;;;;5084161;28;19951;-65
2022/05/10 06:34:59;;;;;;;8.93;3.75;;;18.40;96.20;;;;;;5084828;28;20424;-67
2022/05/10 06:40:18;;;;;;;6.85;3.88;;;18.60;95.90;;;;;;5051335;28;20500;-67
2022/05/10 06:42:44;;;;;;;8.52;4.68;;;18.80;94.60;;;;;;5084141;28;20050;-66
2022/05/10 06:45:11;;;;;;;;;;;18.80;94.40;;;;;;5078683;28;20032;-65
2022/05/10 06:47:38;;;;;;;5.93;4.22;;;18.90;94.60;;;;;;5084857;28;19923;-65
2022/05/10 06:50:06;;;;;;;10.32;4.20;;;18.90;94.50;;;;;;5085471;28;20048;-66
2022/05/10 06:52:32;;;;;;;10.02;4.93;;;19.00;94.80;;;;;;5084270;28;20044;-65
2022/05/10 06:54:58;;;;;;;;;;;19.30;94.10;;;;;;5086036;28;20399;-66
2022/05/10 06:57:23;;;;;;;9.52;3.90;;;20.00;93.10;;;;;;5081593;28;20451;-65
2022/05/10 06:59:49;;;;;;;8.55;3.65;;;20.70;91.20;;;;;;5084538;28;20119;-65
2022/05/10 07:02:15;;;;;;;5.07;3.63;;;21.10;91.10;;;;;;5083153;28;20068;-65
2022/05/10 07:04:40;;;;;;;7.53;4.45;;;21.50;89.00;;;;;;5083190;28;20040;-65
2022/05/10 07:07:06;;;;;;;6.47;3.45;;;21.60;86.70;;;;;;5081668;28;20346;-66
2022/05/10 07:09:31;;;;;;;4.10;3.35;;;21.60;86.00;;;;;;5079568;28;20061;-66
2022/05/10 07:11:57;;;;;;;5.32;3.63;;;21.30;86.60;;;;;;5070218;28;20036;-66
2022/05/10 07:14:23;;;;;;;9.05;3.80;;;21.10;86.70;;;;;;5083902;28;20044;-65
2022/05/10 07:16:48;;;;;;;7.20;3.35;;;21.10;87.60;;;;;;5084180;28;20047;-66
2022/05/10 07:19:14;;;;;;;20.60;4.25;;;21.00;88.40;;;;;;5084731;28;20032;-66
2022/05/10 07:21:40;;;;;;;7.07;3.60;;;20.80;86.80;;;;;;5076746;28;20028;-66
2022/05/10 07:24:06;;;;;;;8.38;3.28;;;20.70;88.70;;;;;;5069913;28;20040;-66
2022/05/10 07:26:31;;;;;;;9.40;3.58;;;21.10;88.70;;;;;;5080023;28;20097;-66
2022/05/10 07:28:57;;;;;;;7.55;3.13;;;21.80;85.10;;;;;;5083163;28;20035;-66
2022/05/10 07:31:23;;;;;;;4.90;3.53;;;22.90;81.60;;;;;;5089398;28;20112;-66
2022/05/10 07:33:48;;;;;;;6.50;3.22;;;23.60;77.50;;;;;;5089107;28;20458;-66
2022/05/10 07:36:24;;;;;;;4.70;3.17;;;23.50;75.70;;;;;;5089796;28;20090;-66
2022/05/10 07:38:50;;;;;;;4.68;3.30;;;23.30;77.70;;;;;;5088241;28;20483;-66
2022/05/10 07:41:18;;;;;;;6.05;3.17;;;22.80;77.30;;;;;;5088526;28;20036;-66
2022/05/10 07:43:44;;;;;;;4.07;3.22;;;22.80;75.90;;;;;;5089593;28;20043;-66
2022/05/10 07:46:10;;;;;;;5.60;3.58;;;22.70;77.80;;;;;;5085398;28;20119;-67
2022/05/10 07:48:36;;;;;;;6.90;3.33;;;22.90;74.60;;;;;;5089456;28;20094;-66
2022/05/10 07:51:02;;;;;;;10.00;3.70;;;23.20;75.00;;;;;;5088028;28;20044;-66
2022/05/10 07:53:31;;;;;;;6.80;3.13;;;23.90;71.60;;;;;;5088701;28;20040;-66
2022/05/10 07:55:57;;;;;;;5.90;3.22;;;24.30;71.40;;;;;;5088531;28;20040;-66
2022/05/10 07:58:23;;;;;;;5.15;3.25;;;24.60;70.30;;;;;;5088450;28;20752;-67
2022/05/10 08:00:49;;;;;;;21.85;2.80;;;24.40;68.00;;;;;;5086733;28;20043;-66
2022/05/10 08:03:20;;;;;;;7.13;2.92;;;24.80;67.20;;;;;;5089346;28;20039;-66
2022/05/10 08:05:46;;;;;;;3.97;3.03;;;25.40;67.50;;;;;;5088371;28;20067;-66
2022/05/10 08:08:13;;;;;;;7.07;3.15;;;25.90;64.00;;;;;;5088786;28;20474;-66
2022/05/10 08:10:40;;;;;;;5.13;2.80;;;26.30;62.50;;;;;;5087315;28;20036;-66
2022/05/10 08:13:20;;;;;;;4.70;3.03;;;26.40;60.00;;;;;;5087922;28;20044;-66
2022/05/10 08:15:46;;;;;;;4.47;2.70;;;27.10;61.50;;;;;;5087825;28;20032;-64
2022/05/10 08:18:12;;;;;;;3.55;2.72;;;27.20;59.40;;;;;;5088820;28;20043;-64
2022/05/10 08:20:39;;;;;;;7.13;2.63;;;26.60;59.10;;;;;;5087212;28;20038;-64
2022/05/10 08:23:09;;;;;;;5.38;3.20;;;26.60;58.30;;;;;;5087627;28;20036;-64
2022/05/10 08:25:35;;;;;;;3.85;2.70;;;26.40;59.50;;;;;;5087982;28;20081;-64
2022/05/10 08:28:02;;;;;;;5.68;2.70;;;27.10;58.90;;;;;;5084356;28;20036;-65
2022/05/10 08:30:29;;;;;;;4.72;3.28;;;27.60;56.10;;;;;;5086313;28;21158;-64
2022/05/10 08:32:54;;;;;;;4.57;2.90;;;27.20;54.20;;;;;;5087796;28;20028;-66
2022/05/10 08:35:20;;;;;;;8.05;2.70;;;27.30;54.30;;;;;;5088707;28;20097;-67
2022/05/10 08:37:46;;;;;;;3.65;2.47;;;27.80;54.20;;;;;;5087713;28;20052;-67
2022/05/10 08:40:31;;;;;;;4.38;2.85;;;28.30;54.70;;;;;;5087762;28;20028;-66
2022/05/10 08:43:01;;;;;;;3.85;2.67;;;28.60;51.70;;;;;;5081283;28;20070;-66
2022/05/10 08:45:28;;;;;;;5.63;3.20;;;28.60;52.70;;;;;;5083755;28;20048;-67
2022/05/10 08:47:54;;;;;;;4.95;2.60;;;28.00;52.10;;;;;;5086567;28;20127;-66
2022/05/10 08:50:21;;;;;;;5.63;2.95;;;27.30;55.50;;;;;;5087591;28;20040;-66
2022/05/10 08:52:51;;;;;;;6.18;3.97;;;27.00;55.50;;;;;;5086784;28;20696;-67
2022/05/10 08:55:23;;;;;;;5.63;3.05;;;25.50;53.30;;;;;;5078134;28;20086;-66
2022/05/10 08:58:00;;;;;;;5.20;3.50;;;24.80;59.20;;;;;;5081791;28;20086;-66
2022/05/10 09:00:41;;;;;;;8.65;4.53;;;24.30;60.40;;;;;;5086140;28;20075;-65
2022/05/10 09:03:30;;;;;;;5.93;3.30;;;23.60;59.20;;;;;;5087135;28;20039;-67
2022/05/10 09:06:09;;;;;;;10.90;4.00;;;23.40;62.30;;;;;;5087048;28;20048;-67
2022/05/10 09:08:46;;;;;;;6.82;3.38;;;23.30;63.10;;;;;;5087208;28;20115;-66
2022/05/10 09:11:14;;;;;;;6.32;3.80;;;23.40;62.80;;;;;;5086729;28;20039;-66
2022/05/10 09:13:42;;;;;;;9.55;3.95;;;23.40;60.00;;;;;;5086609;28;20717;-65
2022/05/10 09:16:10;;;;;;;6.97;3.40;;;23.20;63.30;;;;;;5087199;28;20039;-66
2022/05/10 09:18:49;;;;;;;6.03;3.75;;;23.40;66.10;;;;;;5087116;28;20127;-67
2022/05/10 09:21:46;;;;;;;5.30;3.30;;;23.30;62.60;;;;;;5086418;28;20101;-66
2022/05/10 09:24:20;;;;;;;9.02;3.47;;;23.30;64.10;;;;;;5067074;28;20047;-65
2022/05/10 09:26:48;;;;;;;3.97;3.13;;;22.90;62.30;;;;;;5071809;28;20048;-66
2022/05/10 09:29:25;;;;;;;11.48;3.40;;;22.90;62.30;;;;;;5081095;28;20453;-65
2022/05/10 09:34:48;;;;;;;5.90;3.50;;;23.30;63.40;;;;;;5083555;28;20469;-66
2022/05/10 09:37:41;;;;;;;4.63;3.40;;;23.30;62.00;;;;;;5086435;28;20831;-66
2022/05/10 09:40:34;;;;;;;11.02;3.53;;;23.20;63.40;;;;;;5086604;28;20734;-65
2022/05/10 09:43:15;;;;;;;3.67;2.83;;;23.10;64.20;;;;;;5083539;28;20035;-66
2022/05/10 09:45:41;;;;;;;6.40;3.45;;;23.10;63.00;;;;;;5065791;28;20041;-65
2022/05/10 09:48:09;;;;;;;6.70;3.13;;;23.10;62.30;;;;;;5079458;28;20031;-65
2022/05/10 09:50:52;;;;;;;4.43;2.95;;;23.20;61.40;;;;;;5078081;28;20068;-66
2022/05/10 09:53:22;;;;;;;4.22;3.28;;;23.50;62.10;;;;;;5086126;28;20036;-66
2022/05/10 09:56:10;;;;;;;8.18;3.38;;;23.80;62.30;;;;;;5071858;28;20116;-66
2022/05/10 09:58:51;;;;;;;7.88;3.45;;;23.80;61.60;;;;;;5083569;28;20531;-66
2022/05/10 10:01:37;;;;;;;6.63;3.40;;;23.70;62.80;;;;;;5084127;28;20067;-66
2022/05/10 10:04:32;;;;;;;5.75;3.17;;;23.50;62.10;;;;;;5086408;28;20080;-66
2022/05/10 10:07:09;;;;;;;5.25;3.60;;;23.70;60.90;;;;;;5072490;28;20551;-65
2022/05/10 10:09:40;;;;;;;5.32;3.00;;;23.60;61.50;;;;;;5086222;28;20334;-66
2022/05/10 10:12:26;;;;;;;6.20;3.10;;;23.60;59.20;;;;;;5085306;28;20048;-66
2022/05/10 10:14:52;;;;;;;6.53;2.90;;;23.60;60.40;;;;;;5085470;28;20108;-66
2022/05/10 10:17:28;;;;;;;4.30;3.10;;;23.70;59.40;;;;;;5085352;28;20144;-67
2022/05/10 10:20:06;;;;;;;4.70;3.00;;;23.80;59.50;;;;;;5085756;28;20043;-66
2022/05/10 10:22:39;;;;;;;7.30;3.45;;;23.80;56.20;;;;;;5085450;28;20139;-66
2022/05/10 10:25:24;;;;;;;3.95;2.67;;;23.70;57.60;;;;;;5086331;28;20040;-66
2022/05/10 10:27:57;;;;;;;20.27;3.10;;;23.60;57.20;;;;;;5085377;28;20047;-66
2022/05/10 10:30:42;;;;;;;4.63;3.25;;;23.70;57.10;;;;;;5084593;28;20090;-67
2022/05/10 10:33:22;;;;;;;6.47;3.00;;;23.70;58.00;;;;;;5082217;28;20048;-66
2022/05/10 10:35:54;;;;;;;6.63;3.35;;;23.90;58.10;;;;;;5085815;28;20039;-65
2022/05/10 10:38:37;;;;;;;5.30;2.88;;;24.10;56.00;;;;;;5085867;28;20600;-66
2022/05/10 10:41:08;;;;;;;4.05;2.70;;;23.90;56.80;;;;;;5084831;28;20051;-66
2022/05/10 10:43:43;;;;;;;4.53;2.63;;;23.80;55.60;;;;;;5082104;28;20044;-66
2022/05/10 10:46:38;;;;;;;5.30;2.50;;;23.70;56.10;;;;;;5085254;28;20048;-66
2022/05/10 10:49:17;;;;;;;4.82;2.33;;;24.00;58.60;;;;;;5085645;28;20667;-66
2022/05/10 10:51:42;;;;;;;3.63;2.60;;;23.80;55.30;;;;;;5084763;28;20070;-65
2022/05/10 10:54:17;;;;;;;7.35;2.88;;;23.70;56.60;;;;;;5085453;28;20443;-66
2022/05/10 10:56:55;;;;;;;5.95;3.47;;;23.50;56.50;;;;;;5085230;28;20044;-67
2022/05/10 10:59:26;;;;;;;6.57;3.05;;;23.40;57.20;;;;;;5085830;28;20423;-66
2022/05/10 11:02:29;;;;;;;7.43;2.97;;;23.20;57.10;;;;;;5082973;28;20048;-65
2022/05/10 11:05:18;;;;;;;9.45;3.15;;;23.30;58.30;;;;;;5084549;28;20040;-66
2022/05/10 11:08:06;;;;;;;7.18;3.15;;;23.50;57.70;;;;;;5075314;28;20048;-65
2022/05/10 11:10:46;;;;;;;10.80;3.70;;;23.70;57.80;;;;;;5071322;28;20083;-70
2022/05/10 11:13:37;;;;;;;4.80;3.08;;;23.70;58.50;;;;;;5076801;28;20032;-70
2022/05/10 11:16:33;;;;;;;8.05;3.60;;;23.50;58.60;;;;;;5062241;28;20052;-67
2022/05/10 11:19:18;;;;;;;7.75;3.03;;;23.60;58.80;;;;;;5081822;28;20052;-69
2022/05/10 11:22:02;;;;;;;6.22;2.72;;;23.90;57.90;;;;;;5083020;28;20105;-68
2022/05/10 11:25:00;;;;;;;9.02;3.30;;;23.70;55.80;;;;;;5084281;28;20032;-68
2022/05/10 11:27:31;;;;;;;4.68;3.08;;;23.80;57.50;;;;;;5079105;28;20142;-68
2022/05/10 11:30:15;;;;;;;8.35;3.47;;;23.40;56.90;;;;;;5078068;28;20125;-66
2022/05/10 11:32:52;;;;;;;7.30;3.70;;;23.30;57.00;;;;;;5083263;28;20437;-70
2022/05/10 11:35:57;;;;;;;3.88;2.83;;;23.30;58.00;;;;;;5079430;28;20127;-67
2022/05/10 11:38:50;;;;;;;4.97;2.92;;;23.30;59.40;;;;;;5082105;28;20093;-68
2022/05/10 11:41:33;;;;;;;6.50;3.28;;;23.30;59.40;;;;;;5075325;28;20040;-67
2022/05/10 11:44:09;;;;;;;6.68;2.80;;;23.40;58.70;;;;;;5077589;28;20742;-70
2022/05/10 11:46:38;;;;;;;6.05;3.08;;;23.30;58.80;;;;;;5079470;28;20407;-65
2022/05/10 11:49:28;;;;;;;8.45;2.53;;;23.80;58.50;;;;;;5075442;28;20058;-65
2022/05/10 11:52:08;;;;;;;3.22;2.42;;;24.20;57.40;;;;;;5080289;28;20075;-66
2022/05/10 11:54:47;;;;;;;7.07;2.70;;;24.00;53.80;;;;;;5080020;28;20123;-68
2022/05/10 11:57:18;;;;;;;5.07;2.83;;;23.90;55.40;;;;;;5079433;28;20115;-69
2022/05/10 11:59:45;;;;;;;6.68;3.45;;;23.80;56.60;;;;;;5080716;28;20116;-68
2022/05/10 12:02:29;;;;;;;3.08;2.55;;;23.90;56.60;;;;;;5075637;28;20534;-68
2022/05/10 12:05:10;;;;;;;5.38;3.28;;;23.80;56.60;;;;;;5078081;28;20063;-68
2022/05/10 12:08:02;;;;;;;6.88;2.88;;;23.80;55.40;;;;;;5074059;28;20078;-68
2022/05/10 12:10:29;;;;;;;5.18;2.83;;;23.70;55.40;;;;;;5080796;28;20059;-68
2022/05/10 12:13:00;;;;;;;6.13;3.13;;;23.60;55.50;;;;;;5084114;28;20051;-69
2022/05/10 12:21:32;;;;;;;3.42;2.83;;;23.60;57.20;;;;;;5085805;28;20407;-68
2022/05/10 12:24:07;;;;;;;5.05;2.78;;;23.90;58.50;;;;;;5078953;28;20039;-69
2022/05/10 12:26:43;;;;;;;3.70;2.60;;;23.90;54.80;;;;;;5082514;28;20121;-68
2022/05/10 12:29:40;;;;;;;5.97;2.67;;;23.90;55.30;;;;;;5088119;28;20032;-69
2022/05/10 12:32:09;;;;;;;3.97;2.67;;;23.80;55.70;;;;;;5080701;28;20127;-69
2022/05/10 12:34:53;;;;;;;3.10;2.40;;;23.80;56.70;;;;;;5087890;28;20035;-69
2022/05/10 12:37:27;;;;;;;12.07;2.85;;;23.80;54.60;;;;;;5084694;28;20032;-69
2022/05/10 12:40:08;;;;;;;5.97;2.70;;;23.90;54.10;;;;;;5086476;28;20480;-67
2022/05/10 12:42:59;;;;;;;4.78;3.22;;;24.00;54.60;;;;;;5081890;28;20044;-67
2022/05/10 12:45:48;;;;;;;5.28;2.90;;;24.10;54.90;;;;;;5083504;28;20040;-67
2022/05/10 12:48:29;;;;;;;5.90;2.60;;;24.10;53.90;;;;;;5080179;28;20090;-67
2022/05/10 12:50:55;;;;;;;4.75;2.50;;;24.10;53.40;;;;;;5079138;28;20106;-67
2022/05/10 12:53:27;;;;;;;4.72;2.20;;;24.20;52.00;;;;;;5084586;28;20040;-67
2022/05/10 12:56:20;;;;;;;6.07;3.08;;;24.10;52.00;;;;;;5087139;28;20447;-67
2022/05/10 12:58:55;;;;;;;5.53;2.50;;;24.00;54.10;;;;;;5078318;28;20064;-68
2022/05/10 13:01:23;;;;;;;4.07;2.55;;;23.60;54.00;;;;;;5084081;28;20036;-67
2022/05/10 13:03:56;;;;;;;5.40;3.10;;;23.50;55.20;;;;;;5086803;28;20032;-67
2022/05/10 13:06:48;;;;;;;4.72;2.67;;;23.50;54.50;;;;;;5085854;28;20462;-67
2022/05/10 13:09:36;;;;;;;3.80;2.83;;;23.40;55.90;;;;;;5081542;28;20395;-67
2022/05/10 13:12:14;;;;;;;6.95;2.22;;;23.40;54.60;;;;;;5084348;28;20044;-67
2022/05/10 13:14:45;;;;;;;3.88;2.72;;;23.60;55.00;;;;;;5086129;28;20052;-67
2022/05/10 13:17:19;;;;;;;6.60;2.50;;;23.80;55.90;;;;;;5084341;28;20119;-66
2022/05/10 13:19:45;;;;;;;5.00;2.55;;;23.80;53.40;;;;;;5087503;28;20040;-68
2022/05/10 13:22:18;;;;;;;5.47;2.75;;;24.00;54.20;;;;;;5083020;28;20608;-68
2022/05/10 13:24:45;;;;;;;5.30;2.42;;;24.00;54.00;;;;;;5086742;28;20093;-69
2022/05/10 13:27:24;;;;;;;2.83;2.45;;;24.10;53.10;;;;;;5086805;28;20051;-68
2022/05/10 13:29:50;;;;;;;7.28;2.58;;;23.80;52.60;;;;;;5086123;28;20071;-68
2022/05/10 13:32:38;;;;;;;6.18;2.60;;;23.50;54.40;;;;;;5084905;28;20063;-67
2022/05/10 13:35:10;;;;;;;5.68;2.30;;;23.50;55.10;;;;;;5084098;28;20040;-67
2022/05/10 13:37:40;;;;;;;6.10;2.67;;;23.50;54.10;;;;;;5084714;28;20036;-68
2022/05/10 13:40:24;;;;;;;5.05;2.50;;;23.40;54.30;;;;;;5084872;28;20028;-67
2022/05/10 13:42:50;;;;;;;4.25;2.95;;;23.40;54.60;;;;;;5084667;28;20054;-67